TimeCDT,TemperatureF,Dew PointF,Humidity,Sea Level PressureIn,VisibilityMPH,Wind Direction,Wind SpeedMPH,Gust SpeedMPH,PrecipitationIn,Events,Conditions,WindDirDegrees,DateUTC
12:15 AM,46.4,44.6,93,30.07,10.0,Calm,Calm,-,N/A,,Clear,0,2013-10-08 05:15:00
12:35 AM,44.6,44.6,100,30.07,10.0,Calm,Calm,-,N/A,,Clear,0,2013-10-08 05:35:00
1:15 AM,44.6,44.6,100,30.08,10.0,Calm,Calm,-,N/A,,Clear,0,2013-10-08 06:15:00
1:35 AM,44.6,42.8,93,30.08,8.0,Calm,Calm,-,N/A,,Clear,0,2013-10-08 06:35:00
1:55 AM,44.6,42.8,93,30.08,10.0,Calm,Calm,-,N/A,,Clear,0,2013-10-08 06:55:00
2:15 AM,44.6,42.8,93,30.08,10.0,Calm,Calm,-,N/A,,Clear,0,2013-10-08 07:15:00
2:35 AM,42.8,42.8,100,30.08,10.0,SSE,3.5,-,N/A,,Clear,160,2013-10-08 07:35:00
2:55 AM,44.6,42.8,93,30.08,10.0,Calm,Calm,-,N/A,,Clear,0,2013-10-08 07:55:00
3:15 AM,44.6,42.8,93,30.08,7.0,Calm,Calm,-,N/A,,Clear,0,2013-10-08 08:15:00
3:35 AM,42.8,41.0,93,30.08,10.0,Calm,Calm,-,N/A,,Clear,0,2013-10-08 08:35:00
3:55 AM,44.6,42.8,93,30.08,10.0,Calm,Calm,-,N/A,,Clear,0,2013-10-08 08:55:00
4:15 AM,46.4,44.6,93,30.08,10.0,Calm,Calm,-,N/A,,Clear,0,2013-10-08 09:15:00
4:35 AM,44.6,42.8,93,30.09,10.0,Calm,Calm,-,N/A,,Clear,0,2013-10-08 09:35:00
4:55 AM,44.6,42.8,93,30.09,10.0,Calm,Calm,-,N/A,,Clear,0,2013-10-08 09:55:00
5:15 AM,42.8,42.8,100,30.09,10.0,Calm,Calm,-,N/A,,Clear,0,2013-10-08 10:15:00
5:35 AM,42.8,42.8,100,30.10,10.0,Calm,Calm,-,N/A,,Clear,0,2013-10-08 10:35:00
5:55 AM,42.8,42.8,100,30.10,10.0,Calm,Calm,-,N/A,,Clear,0,2013-10-08 10:55:00
6:15 AM,44.6,42.8,93,30.10,10.0,Calm,Calm,-,N/A,,Clear,0,2013-10-08 11:15:00
6:35 AM,44.6,42.8,93,30.11,10.0,Calm,Calm,-,N/A,,Clear,0,2013-10-08 11:35:00
6:55 AM,42.8,42.8,100,30.11,10.0,Calm,Calm,-,N/A,,Clear,0,2013-10-08 11:55:00
7:15 AM,44.6,42.8,93,30.11,10.0,Calm,Calm,-,N/A,,Clear,0,2013-10-08 12:15:00
7:35 AM,44.6,42.8,93,30.11,10.0,ESE,3.5,-,N/A,,Clear,120,2013-10-08 12:35:00
7:55 AM,46.4,46.4,100,30.12,10.0,SE,3.5,-,N/A,,Clear,130,2013-10-08 12:55:00
8:15 AM,50.0,46.4,87,30.12,10.0,SE,3.5,-,N/A,,Clear,140,2013-10-08 13:15:00
8:35 AM,51.8,46.4,82,30.13,10.0,SE,3.5,-,N/A,,Clear,140,2013-10-08 13:35:00
8:55 AM,53.6,48.2,82,30.13,10.0,Calm,Calm,-,N/A,,Clear,0,2013-10-08 13:55:00
9:15 AM,57.2,50.0,77,30.13,10.0,South,5.8,-,N/A,,Clear,170,2013-10-08 14:15:00
9:35 AM,59.0,48.2,67,30.13,10.0,South,6.9,-,N/A,,Clear,180,2013-10-08 14:35:00
9:55 AM,62.6,48.2,59,30.13,10.0,South,8.1,-,N/A,,Clear,180,2013-10-08 14:55:00
10:15 AM,64.4,48.2,56,30.12,10.0,South,6.9,-,N/A,,Clear,180,2013-10-08 15:15:00
10:35 AM,66.2,48.2,52,30.12,9.0,South,11.5,-,N/A,,Clear,190,2013-10-08 15:35:00
10:55 AM,66.2,50.0,56,30.12,10.0,South,11.5,-,N/A,,Clear,180,2013-10-08 15:55:00
11:15 AM,68.0,48.2,49,30.12,10.0,South,13.8,-,N/A,,Clear,190,2013-10-08 16:15:00
11:35 AM,69.8,48.2,46,30.12,10.0,South,11.5,-,N/A,,Clear,180,2013-10-08 16:35:00
11:55 AM,71.6,46.4,41,30.12,9.0,South,11.5,20.7,N/A,,Clear,190,2013-10-08 16:55:00
12:15 PM,73.4,46.4,38,30.11,9.0,South,13.8,-,N/A,,Clear,180,2013-10-08 17:15:00
12:35 PM,73.4,44.6,36,30.10,10.0,South,17.3,-,N/A,,Clear,190,2013-10-08 17:35:00
12:55 PM,75.2,44.6,34,30.10,9.0,South,15.0,-,N/A,,Clear,170,2013-10-08 17:55:00
1:15 PM,75.2,42.8,31,30.09,9.0,South,16.1,26.5,N/A,,Clear,180,2013-10-08 18:15:00
1:35 PM,75.2,42.8,31,30.08,10.0,South,16.1,21.9,N/A,,Clear,190,2013-10-08 18:35:00
1:55 PM,75.2,42.8,31,30.07,9.0,SSW,13.8,24.2,N/A,,Clear,200,2013-10-08 18:55:00
2:15 PM,75.2,42.8,31,30.06,10.0,South,15.0,24.2,N/A,,Clear,170,2013-10-08 19:15:00
2:35 PM,77.0,42.8,29,30.06,10.0,South,18.4,-,N/A,,Clear,170,2013-10-08 19:35:00
2:55 PM,77.0,42.8,29,30.06,10.0,South,15.0,23.0,N/A,,Clear,190,2013-10-08 19:55:00
3:15 PM,77.0,42.8,29,30.06,9.0,South,17.3,23.0,N/A,,Clear,180,2013-10-08 20:15:00
3:35 PM,77.0,42.8,29,30.06,8.0,SSW,17.3,-,N/A,,Clear,200,2013-10-08 20:35:00
3:55 PM,77.0,41.0,28,30.06,9.0,South,15.0,24.2,N/A,,Clear,190,2013-10-08 20:55:00
4:15 PM,77.0,41.0,28,30.05,8.0,South,15.0,21.9,N/A,,Clear,190,2013-10-08 21:15:00
4:35 PM,77.0,41.0,28,30.05,10.0,South,11.5,24.2,N/A,,Clear,180,2013-10-08 21:35:00
4:55 PM,77.0,42.8,29,30.05,10.0,South,11.5,23.0,N/A,,Clear,180,2013-10-08 21:55:00
5:15 PM,75.2,41.0,29,30.04,10.0,South,11.5,20.7,N/A,,Clear,170,2013-10-08 22:15:00
5:35 PM,73.4,42.8,33,30.04,10.0,South,10.4,-,N/A,,Clear,170,2013-10-08 22:35:00
5:55 PM,73.4,42.8,33,30.04,10.0,South,10.4,16.1,N/A,,Clear,180,2013-10-08 22:55:00
6:15 PM,69.8,42.8,38,30.05,10.0,South,6.9,-,N/A,,Clear,170,2013-10-08 23:15:00
6:35 PM,68.0,46.4,46,30.05,10.0,SSE,8.1,-,N/A,,Clear,160,2013-10-08 23:35:00
6:55 PM,66.2,46.4,49,30.06,10.0,SSE,8.1,-,N/A,,Clear,150,2013-10-08 23:55:00
7:15 PM,64.4,44.6,49,30.06,10.0,SE,6.9,-,N/A,,Clear,140,2013-10-09 00:15:00
7:35 PM,62.6,44.6,52,30.06,10.0,SSE,6.9,-,N/A,,Clear,150,2013-10-09 00:35:00
7:55 PM,60.8,44.6,55,30.06,10.0,SSE,5.8,-,N/A,,Clear,150,2013-10-09 00:55:00
8:15 PM,60.8,44.6,55,30.07,10.0,SSE,8.1,-,N/A,,Clear,150,2013-10-09 01:15:00
8:35 PM,60.8,46.4,59,30.07,10.0,SSE,8.1,-,N/A,,Clear,150,2013-10-09 01:35:00
8:55 PM,60.8,46.4,59,30.08,10.0,SSE,9.2,-,N/A,,Clear,150,2013-10-09 01:55:00
9:15 PM,60.8,46.4,59,30.08,10.0,SE,8.1,-,N/A,,Clear,140,2013-10-09 02:15:00
9:35 PM,60.8,46.4,59,30.08,10.0,SE,6.9,-,N/A,,Clear,140,2013-10-09 02:35:00
9:55 PM,59.0,46.4,63,30.09,10.0,SE,5.8,-,N/A,,Clear,130,2013-10-09 02:55:00
10:15 PM,57.2,46.4,67,30.09,10.0,SE,4.6,-,N/A,,Clear,140,2013-10-09 03:15:00
10:35 PM,55.4,46.4,72,30.09,10.0,SSE,4.6,-,N/A,,Clear,150,2013-10-09 03:35:00
10:55 PM,53.6,46.4,77,30.09,10.0,Calm,Calm,-,N/A,,Clear,0,2013-10-09 03:55:00
11:15 PM,55.4,46.4,72,30.09,10.0,SSE,5.8,-,N/A,,Clear,150,2013-10-09 04:15:00
11:35 PM,55.4,46.4,72,30.10,10.0,ESE,3.5,-,N/A,,Clear,120,2013-10-09 04:35:00
11:55 PM,53.6,46.4,77,30.10,10.0,Calm,Calm,-,N/A,,Clear,0,2013-10-09 04:55:00